createdAt,value
2022-12-23T00:01:01.840Z,1.37
2022-12-23T00:03:29.699Z,1.83
2022-12-23T00:05:56.469Z,1.80
2022-12-23T00:08:23.146Z,1.43
2022-12-23T00:10:50.593Z,1.50
2022-12-23T00:13:37.662Z,1.70
2022-12-23T00:16:04.306Z,1.73
2022-12-23T00:18:30.965Z,1.50
2022-12-23T00:21:08.067Z,1.60
2022-12-23T00:23:38.726Z,1.60
2022-12-23T00:26:05.565Z,1.50
2022-12-23T00:28:32.356Z,1.60
2022-12-23T00:31:00.247Z,1.70
2022-12-23T00:33:29.253Z,2.00
2022-12-23T00:35:56.090Z,1.90
2022-12-23T00:38:41.409Z,2.50
2022-12-23T00:41:37.290Z,2.20
2022-12-23T00:44:04.615Z,2.30
2022-12-23T00:46:31.416Z,2.90
2022-12-23T00:49:16.792Z,3.77
2022-12-23T00:51:43.830Z,3.37
2022-12-23T00:54:10.480Z,4.00
2022-12-23T00:56:37.205Z,3.77
2022-12-23T00:59:04.070Z,3.77
2022-12-23T01:01:49.508Z,3.90
2022-12-23T01:04:35.993Z,3.97
2022-12-23T01:07:03.427Z,4.23
2022-12-23T01:09:30.173Z,4.63
2022-12-23T01:11:57.156Z,4.90
2022-12-23T01:14:24.047Z,5.20
2022-12-23T01:16:50.815Z,5.77
2022-12-23T01:19:17.553Z,5.87
2022-12-23T01:21:44.296Z,6.70
2022-12-23T01:24:10.931Z,6.67
2022-12-23T01:26:37.616Z,6.77
2022-12-23T01:29:04.439Z,7.37
2022-12-23T01:31:32.142Z,6.57
2022-12-23T01:33:58.861Z,6.70
2022-12-23T01:36:25.757Z,6.47
2022-12-23T01:38:52.545Z,6.33
2022-12-23T01:41:39.393Z,6.03
2022-12-23T01:44:24.994Z,6.20
2022-12-23T01:46:51.885Z,6.73
2022-12-23T01:49:18.822Z,6.57
2022-12-23T01:51:45.400Z,6.67
2022-12-23T01:54:12.038Z,6.03
2022-12-23T01:56:38.976Z,6.23
2022-12-23T01:59:11.427Z,5.77
2022-12-23T02:01:56.974Z,7.30
2022-12-23T02:04:24.996Z,6.13
2022-12-23T02:07:10.308Z,6.53
2022-12-23T02:09:38.349Z,5.83
2022-12-23T02:12:04.881Z,6.10
2022-12-23T02:18:27.244Z,5.20
2022-12-23T02:21:03.016Z,5.33
2022-12-23T02:23:55.702Z,4.70
2022-12-23T02:26:34.538Z,4.83
2022-12-23T02:29:07.279Z,3.70
2022-12-23T02:31:36.991Z,4.47
2022-12-23T02:34:06.306Z,3.60
2022-12-23T02:36:56.897Z,3.97
2022-12-23T02:39:29.965Z,3.17
2022-12-23T02:42:06.526Z,3.93
2022-12-23T02:44:36.968Z,3.13
2022-12-23T02:47:12.086Z,3.43
2022-12-23T02:49:40.612Z,3.03
2022-12-23T02:52:10.482Z,2.87
2022-12-23T02:54:40.764Z,2.80
2022-12-23T02:57:08.016Z,2.73
2022-12-23T02:59:38.898Z,2.37
2022-12-23T03:02:05.672Z,2.90
2022-12-23T03:04:32.464Z,3.40
2022-12-23T03:07:05.909Z,3.37
2022-12-23T03:10:00.758Z,2.93
2022-12-23T03:12:27.552Z,3.10
2022-12-23T03:15:11.995Z,3.60
2022-12-23T03:17:46.789Z,3.50
2022-12-23T03:20:19.012Z,3.17
2022-12-23T03:22:56.759Z,2.93
2022-12-23T03:25:33.876Z,3.60
2022-12-23T03:28:06.880Z,2.80
2022-12-23T03:30:34.277Z,2.73
2022-12-23T03:33:12.431Z,2.93
2022-12-23T03:35:48.005Z,3.20
2022-12-23T03:38:17.422Z,3.17
2022-12-23T03:40:47.620Z,3.00
2022-12-23T03:43:20.122Z,2.83
2022-12-23T03:45:53.628Z,3.30
2022-12-23T03:48:33.144Z,3.20
2022-12-23T03:51:02.832Z,2.50
2022-12-23T03:53:35.017Z,3.00
2022-12-23T03:56:07.323Z,2.97
2022-12-23T03:58:34.062Z,3.23
2022-12-23T04:01:23.487Z,3.57
2022-12-23T04:03:56.311Z,3.60
2022-12-23T04:06:24.538Z,4.00
2022-12-23T04:08:51.848Z,4.20
2022-12-23T04:11:18.856Z,3.57
2022-12-23T04:13:47.458Z,4.40
2022-12-23T04:16:14.771Z,3.67
2022-12-23T04:18:41.535Z,4.10
2022-12-23T04:21:08.125Z,3.67
2022-12-23T04:23:34.799Z,4.07
2022-12-23T04:26:01.475Z,3.50
2022-12-23T04:28:28.068Z,3.40
2022-12-23T04:30:54.917Z,3.73
2022-12-23T04:33:21.604Z,3.57
2022-12-23T04:35:48.230Z,3.03
2022-12-23T04:38:14.800Z,3.40
2022-12-23T04:40:45.008Z,2.70
2022-12-23T04:43:11.637Z,3.43
2022-12-23T04:45:38.324Z,3.37
2022-12-23T04:48:04.951Z,3.50
2022-12-23T04:50:31.616Z,3.17
2022-12-23T04:52:58.258Z,3.10
2022-12-23T04:55:24.892Z,3.37
2022-12-23T04:57:51.529Z,2.77
2022-12-23T05:00:18.910Z,3.73
2022-12-23T05:02:45.744Z,3.50
2022-12-23T05:05:12.750Z,2.80
2022-12-23T05:07:39.438Z,2.83
2022-12-23T05:10:06.230Z,3.27
2022-12-23T05:12:32.895Z,2.63
2022-12-23T05:14:59.644Z,3.03
2022-12-23T05:17:26.300Z,2.43
2022-12-23T05:19:52.952Z,2.90
2022-12-23T05:22:19.639Z,3.20
2022-12-23T05:24:46.218Z,2.90
2022-12-23T05:27:12.955Z,4.00
2022-12-23T05:29:39.615Z,3.63
2022-12-23T05:32:06.516Z,3.30
2022-12-23T05:34:33.237Z,3.77
2022-12-23T05:37:00.070Z,3.13
2022-12-23T05:39:26.707Z,3.67
2022-12-23T05:41:53.380Z,4.10
2022-12-23T05:44:19.989Z,4.50
2022-12-23T05:46:46.655Z,3.90
2022-12-23T05:49:13.684Z,3.90
2022-12-23T05:51:40.298Z,4.30
2022-12-23T05:54:07.001Z,4.00
2022-12-23T05:56:33.600Z,4.33
2022-12-23T05:59:00.180Z,3.73
2022-12-23T06:01:26.916Z,3.63
2022-12-23T06:03:54.311Z,3.50
2022-12-23T06:06:21.048Z,3.80
2022-12-23T06:08:47.828Z,3.40
2022-12-23T06:11:14.534Z,4.13
2022-12-23T06:13:41.135Z,4.47
2022-12-23T06:16:07.973Z,4.30
2022-12-23T06:18:34.638Z,4.80
2022-12-23T06:21:01.320Z,5.53
2022-12-23T06:23:27.920Z,5.93
2022-12-23T06:26:01.855Z,6.60
2022-12-23T06:28:29.359Z,7.03
2022-12-23T06:30:57.016Z,7.00
2022-12-23T06:33:24.030Z,7.47
2022-12-23T06:35:50.646Z,6.90
2022-12-23T06:38:17.290Z,6.90
2022-12-23T06:40:44.266Z,7.23
2022-12-23T06:43:13.496Z,6.80
2022-12-23T06:45:40.316Z,6.33
2022-12-23T06:48:07.285Z,6.27
2022-12-23T06:50:34.025Z,5.13
2022-12-23T06:53:00.697Z,4.57
2022-12-23T06:55:27.330Z,5.33
2022-12-23T06:57:54.295Z,4.60
2022-12-23T07:00:20.999Z,4.43
2022-12-23T07:02:47.866Z,4.90
2022-12-23T07:05:14.581Z,6.77
2022-12-23T07:07:41.268Z,5.17
2022-12-23T07:10:08.233Z,5.47
2022-12-23T07:12:34.927Z,5.50
2022-12-23T07:15:01.591Z,6.13
2022-12-23T07:17:28.465Z,5.33
2022-12-23T07:19:55.157Z,6.53
2022-12-23T07:22:21.789Z,6.57
2022-12-23T07:24:48.419Z,5.90
2022-12-23T07:27:15.394Z,7.10
2022-12-23T07:29:42.479Z,6.60
2022-12-23T07:32:09.200Z,6.47
2022-12-23T07:34:36.324Z,6.67
2022-12-23T07:37:03.067Z,6.90
2022-12-23T07:39:29.708Z,6.83
2022-12-23T07:42:16.547Z,6.80
2022-12-23T07:44:43.191Z,7.17
2022-12-23T07:47:09.823Z,7.53
2022-12-23T07:49:36.793Z,7.93
2022-12-23T07:52:03.621Z,7.87
2022-12-23T07:54:30.267Z,8.40
2022-12-23T07:56:58.225Z,7.93
2022-12-23T07:59:25.754Z,7.83
2022-12-23T08:01:52.575Z,7.90
2022-12-23T08:04:19.306Z,7.73
2022-12-23T08:06:46.073Z,7.90
2022-12-23T08:09:13.045Z,7.40
2022-12-23T08:11:39.813Z,7.43
2022-12-23T08:14:07.175Z,6.43
2022-12-23T08:16:39.571Z,6.80
2022-12-23T08:19:09.912Z,6.80
2022-12-23T08:21:36.568Z,6.37
2022-12-23T08:24:03.201Z,5.57
2022-12-23T08:26:29.833Z,6.03
2022-12-23T08:28:56.420Z,5.27
2022-12-23T08:31:24.518Z,6.03
2022-12-23T08:33:53.141Z,5.23
2022-12-23T08:36:25.269Z,5.47
2022-12-23T08:38:53.093Z,4.80
2022-12-23T08:41:21.921Z,4.87
2022-12-23T08:43:48.643Z,5.20
2022-12-23T08:46:15.297Z,5.07
2022-12-23T08:48:48.659Z,5.17
2022-12-23T08:51:16.875Z,4.93
2022-12-23T08:53:44.499Z,5.97
2022-12-23T08:56:13.238Z,4.93
2022-12-23T08:58:40.947Z,4.53
2022-12-23T09:01:08.915Z,4.17
2022-12-23T09:03:37.223Z,3.83
2022-12-23T09:06:07.753Z,3.43
2022-12-23T09:08:34.936Z,3.63
2022-12-23T09:11:01.958Z,3.40
2022-12-23T09:13:35.252Z,3.50
2022-12-23T09:16:02.689Z,2.87
2022-12-23T09:18:29.386Z,3.20
2022-12-23T09:21:03.065Z,2.77
2022-12-23T09:23:30.001Z,3.57
2022-12-23T09:25:56.651Z,3.40
2022-12-23T09:28:23.627Z,2.30
2022-12-23T09:30:50.584Z,2.90
2022-12-23T09:33:17.382Z,2.43
2022-12-23T09:35:44.264Z,2.20
2022-12-23T09:38:11.249Z,2.37
2022-12-23T09:40:39.096Z,2.20
2022-12-23T09:43:27.710Z,2.40
2022-12-23T09:45:54.319Z,2.07
2022-12-23T09:48:22.425Z,1.90
2022-12-23T09:50:49.237Z,1.50
2022-12-23T09:53:20.196Z,1.80
2022-12-23T09:55:50.873Z,1.90
2022-12-23T09:58:22.873Z,2.13
2022-12-23T10:01:05.891Z,2.30
2022-12-23T10:03:43.694Z,2.00
2022-12-23T10:06:19.931Z,2.10
2022-12-23T10:08:47.684Z,1.70
2022-12-23T10:11:16.560Z,1.73
2022-12-23T10:13:55.882Z,1.57
2022-12-23T10:16:24.192Z,2.10
2022-12-23T10:18:53.999Z,1.63
2022-12-23T10:21:25.333Z,1.67
2022-12-23T10:23:53.599Z,2.07
2022-12-23T10:26:23.717Z,2.20
2022-12-23T10:28:53.773Z,3.70
2022-12-23T10:31:39.684Z,2.40
2022-12-23T10:34:33.429Z,2.10
2022-12-23T10:37:11.048Z,2.13
2022-12-23T10:40:04.153Z,2.27
2022-12-23T10:42:36.244Z,2.40
2022-12-23T10:45:21.708Z,2.43
2022-12-23T10:47:53.120Z,3.17
2022-12-23T10:50:25.501Z,2.63
2022-12-23T10:52:52.966Z,2.53
2022-12-23T10:55:33.096Z,2.90
2022-12-23T10:58:06.093Z,3.03
2022-12-23T11:00:32.904Z,2.97
2022-12-23T11:03:38.015Z,2.33
2022-12-23T11:06:06.314Z,2.50
2022-12-23T11:08:33.148Z,2.63
2022-12-23T11:11:00.650Z,2.37
2022-12-23T11:13:34.674Z,2.57
2022-12-23T11:16:18.593Z,3.13
2022-12-23T11:19:03.165Z,2.93
2022-12-23T11:21:31.074Z,2.73
2022-12-23T11:24:17.846Z,3.03
2022-12-23T11:26:46.269Z,2.60
2022-12-23T11:29:18.412Z,2.20
2022-12-23T11:31:45.150Z,2.67
2022-12-23T11:34:17.318Z,2.60
2022-12-23T11:36:45.991Z,2.20
2022-12-23T11:39:23.062Z,2.53
2022-12-23T11:41:52.153Z,2.67
2022-12-23T11:44:29.381Z,2.93
2022-12-23T11:46:56.154Z,2.77
2022-12-23T11:49:26.971Z,2.83
2022-12-23T11:52:01.923Z,2.50
2022-12-23T11:54:28.830Z,2.07
2022-12-23T11:56:56.128Z,2.10
2022-12-23T11:59:31.120Z,2.40
2022-12-23T12:02:00.023Z,2.20
2022-12-23T12:04:28.936Z,2.10
2022-12-23T12:06:56.844Z,2.67
2022-12-23T12:09:24.302Z,2.07
2022-12-23T12:11:53.574Z,2.70
2022-12-23T12:14:22.648Z,2.50
2022-12-23T12:17:02.742Z,2.13
2022-12-23T12:19:35.968Z,2.50
2022-12-23T12:22:06.104Z,3.07
2022-12-23T12:24:36.849Z,1.97
2022-12-23T12:27:05.558Z,2.30
2022-12-23T12:29:47.113Z,3.13
2022-12-23T12:32:21.215Z,2.90
2022-12-23T12:34:51.011Z,2.30
2022-12-23T12:37:21.906Z,6.43
2022-12-23T12:40:04.047Z,2.60
2022-12-23T12:42:42.071Z,2.90
2022-12-23T12:45:31.272Z,1.90
2022-12-23T12:48:22.484Z,0.10
2022-12-23T12:51:09.334Z,0.30
2022-12-23T12:53:37.175Z,0.10
2022-12-23T12:56:12.317Z,0.10
2022-12-23T12:58:40.206Z,0.10
2022-12-23T13:01:06.984Z,0.10
2022-12-23T13:03:46.003Z,0.10
2022-12-23T13:06:15.712Z,0.10
2022-12-23T13:08:48.503Z,0.10
2022-12-23T13:11:15.423Z,0.10
2022-12-23T13:13:47.930Z,0.10
2022-12-23T13:16:26.504Z,0.10
2022-12-23T13:19:16.705Z,0.10
2022-12-23T13:22:00.025Z,0.10
2022-12-23T13:24:36.353Z,0.10
2022-12-23T13:27:15.464Z,0.10
2022-12-23T13:29:57.586Z,0.10
2022-12-23T13:32:30.938Z,0.10
2022-12-23T13:35:08.071Z,0.10
2022-12-23T13:37:37.707Z,0.10
2022-12-23T13:40:17.357Z,0.10
2022-12-23T13:42:48.221Z,0.10
2022-12-23T13:45:16.590Z,0.10
2022-12-23T13:47:46.491Z,0.10
2022-12-23T13:50:18.303Z,0.10
2022-12-23T13:52:56.898Z,0.10
2022-12-23T13:55:42.287Z,0.10
2022-12-23T13:58:28.334Z,0.33
2022-12-23T14:01:10.305Z,0.00
2022-12-23T14:03:38.275Z,0.10
2022-12-23T14:06:23.700Z,0.10
2022-12-23T14:08:53.921Z,0.10
2022-12-23T14:11:27.349Z,0.47
2022-12-23T14:13:57.281Z,0.10
2022-12-23T14:16:24.015Z,0.10
2022-12-23T14:19:20.160Z,0.10
2022-12-23T14:22:05.657Z,0.10
2022-12-23T14:24:51.289Z,0.10
2022-12-23T14:27:20.730Z,0.10
2022-12-23T14:30:09.207Z,0.10
2022-12-23T14:32:41.930Z,0.10
2022-12-23T14:35:17.836Z,0.10
2022-12-23T14:38:05.148Z,0.10
2022-12-23T14:40:37.822Z,0.20
2022-12-23T14:43:26.845Z,0.00
2022-12-23T14:45:57.327Z,0.10
2022-12-23T14:48:36.101Z,0.10
2022-12-23T14:51:03.824Z,0.10
2022-12-23T14:53:31.460Z,0.10
2022-12-23T14:56:13.471Z,0.73
2022-12-23T14:58:43.251Z,0.10
2022-12-23T15:01:11.876Z,0.10
2022-12-23T15:03:43.271Z,0.80
2022-12-23T15:06:14.485Z,1.20
2022-12-23T15:08:42.461Z,1.20
2022-12-23T15:11:15.354Z,1.27
2022-12-23T15:13:42.484Z,1.30
2022-12-23T15:16:14.592Z,1.40
2022-12-23T15:18:52.162Z,1.10
2022-12-23T15:21:19.582Z,0.90
2022-12-23T15:23:50.827Z,1.13
2022-12-23T15:26:17.822Z,1.00
2022-12-23T15:28:44.999Z,1.20
2022-12-23T15:31:20.762Z,1.30
2022-12-23T15:34:05.284Z,1.33
2022-12-23T15:36:37.769Z,1.50
2022-12-23T15:39:09.086Z,1.10
2022-12-23T15:41:43.117Z,1.30
2022-12-23T15:44:13.072Z,1.00
2022-12-23T15:46:40.474Z,0.90
2022-12-23T15:49:09.750Z,1.37
2022-12-23T15:54:33.181Z,1.60
2022-12-23T15:57:01.170Z,1.20
2022-12-23T15:59:29.491Z,1.07
2022-12-23T16:01:56.402Z,0.97
2022-12-23T16:04:28.306Z,1.30
2022-12-23T16:06:55.528Z,1.93
2022-12-23T16:09:22.151Z,2.00
2022-12-23T16:11:56.905Z,1.90
2022-12-23T16:14:32.465Z,2.00
2022-12-23T16:17:13.499Z,2.07
2022-12-23T16:19:43.337Z,2.57
2022-12-23T16:22:28.284Z,2.00
2022-12-23T16:25:08.139Z,2.23
2022-12-23T16:27:34.756Z,1.87
2022-12-23T16:30:13.401Z,2.27
2022-12-23T16:32:44.368Z,1.90
2022-12-23T16:35:12.191Z,2.33
2022-12-23T16:37:39.082Z,2.33
2022-12-23T16:40:13.135Z,2.30
2022-12-23T16:42:39.850Z,2.30
2022-12-23T16:45:07.138Z,2.30
2022-12-23T16:47:33.799Z,2.60
2022-12-23T16:50:00.403Z,2.83
2022-12-23T16:52:27.183Z,3.00
2022-12-23T16:54:53.813Z,2.90
2022-12-23T16:57:20.483Z,2.37
2022-12-23T16:59:47.633Z,2.47
2022-12-23T17:02:18.598Z,2.87
2022-12-23T17:04:45.272Z,2.50
2022-12-23T17:07:12.189Z,2.57
2022-12-23T17:09:38.918Z,3.10
2022-12-23T17:12:06.392Z,2.87
2022-12-23T17:14:33.492Z,3.27
2022-12-23T17:17:00.259Z,3.00
2022-12-23T17:19:29.287Z,2.57
2022-12-23T17:22:00.925Z,3.23
2022-12-23T17:24:27.712Z,3.50
2022-12-23T17:26:56.852Z,3.43
2022-12-23T17:29:23.737Z,3.70
2022-12-23T17:31:51.041Z,3.23
2022-12-23T17:34:18.938Z,3.33
2022-12-23T17:36:49.947Z,3.70
2022-12-23T17:39:17.785Z,4.37
2022-12-23T17:41:44.442Z,3.97
2022-12-23T17:44:13.491Z,3.77
2022-12-23T17:46:40.217Z,4.17
2022-12-23T17:49:06.879Z,3.13
2022-12-23T17:51:33.633Z,3.33
2022-12-23T17:54:00.337Z,3.33
2022-12-23T17:56:28.378Z,4.07
2022-12-23T17:58:55.215Z,3.27
2022-12-23T18:01:21.970Z,3.23
2022-12-23T18:03:48.851Z,3.17
2022-12-23T18:06:16.693Z,3.73
2022-12-23T18:08:43.939Z,3.67
2022-12-23T18:11:16.824Z,3.70
2022-12-23T18:13:43.896Z,4.00
2022-12-23T18:16:12.113Z,3.67
2022-12-23T18:18:46.157Z,2.90
2022-12-23T18:21:14.852Z,2.93
2022-12-23T18:23:41.602Z,3.87
2022-12-23T18:26:12.784Z,2.87
2022-12-23T18:28:39.500Z,3.33
2022-12-23T18:31:07.307Z,3.60
2022-12-23T18:33:33.990Z,3.23
2022-12-23T18:36:00.871Z,3.07
2022-12-23T18:38:27.704Z,4.10
2022-12-23T18:40:54.981Z,3.27
2022-12-23T18:43:23.732Z,3.23
2022-12-23T18:45:53.314Z,3.20
2022-12-23T18:48:20.892Z,3.37
2022-12-23T18:50:47.692Z,3.50
2022-12-23T18:53:21.449Z,4.00
2022-12-23T18:55:51.135Z,3.40
2022-12-23T18:58:18.150Z,3.57
2022-12-23T19:00:45.749Z,3.60
2022-12-23T19:03:29.737Z,3.57
2022-12-23T19:05:57.796Z,3.57
2022-12-23T19:08:27.123Z,3.00
2022-12-23T19:10:54.039Z,3.50
2022-12-23T19:13:20.749Z,3.90
2022-12-23T19:15:47.467Z,3.03
2022-12-23T19:18:15.845Z,4.23
2022-12-23T19:20:43.508Z,2.97
2022-12-23T19:23:10.527Z,4.40
2022-12-23T19:25:40.247Z,3.50
2022-12-23T19:28:06.981Z,2.90
2022-12-23T19:30:33.838Z,3.50
2022-12-23T19:33:00.566Z,3.60
2022-12-23T19:35:27.691Z,3.10
2022-12-23T19:37:54.408Z,3.33
2022-12-23T19:40:21.152Z,3.63
2022-12-23T19:42:47.844Z,4.53
2022-12-23T19:45:14.541Z,3.17
2022-12-23T19:47:43.854Z,4.37
2022-12-23T19:50:11.432Z,3.90
2022-12-23T19:52:38.173Z,3.33
2022-12-23T19:55:05.456Z,3.23
2022-12-23T19:57:33.491Z,3.50
2022-12-23T20:00:01.838Z,3.17
2022-12-23T20:02:38.742Z,3.13
2022-12-23T20:05:05.584Z,3.20
2022-12-23T20:07:32.696Z,1.83
2022-12-23T20:09:59.388Z,3.03
2022-12-23T20:12:28.047Z,2.73
2022-12-23T20:14:55.224Z,2.80
2022-12-23T20:17:21.977Z,3.90
2022-12-23T20:19:48.625Z,2.50
2022-12-23T20:22:15.338Z,2.83
2022-12-23T20:24:41.962Z,2.63
2022-12-23T20:27:11.654Z,2.60
2022-12-23T20:29:39.975Z,2.60
2022-12-23T20:32:06.726Z,3.00
2022-12-23T20:34:39.125Z,2.70
2022-12-23T20:37:07.369Z,3.07
2022-12-23T20:39:34.546Z,2.53
2022-12-23T20:42:01.268Z,2.93
2022-12-23T20:44:37.061Z,3.27
2022-12-23T20:47:05.538Z,3.07
2022-12-23T20:49:32.847Z,2.83
2022-12-23T20:51:59.587Z,2.70
2022-12-23T20:54:32.220Z,3.17
2022-12-23T20:56:59.928Z,4.10
2022-12-23T20:59:27.799Z,3.40
2022-12-23T21:01:54.988Z,3.50
2022-12-23T21:04:22.746Z,2.93
2022-12-23T21:06:49.695Z,2.40
2022-12-23T21:09:16.480Z,3.20
2022-12-23T21:11:44.335Z,2.80
2022-12-23T21:14:11.391Z,3.43
2022-12-23T21:16:38.262Z,4.23
2022-12-23T21:19:05.922Z,3.33
2022-12-23T21:21:33.067Z,3.57
2022-12-23T21:24:01.238Z,3.57
2022-12-23T21:26:29.173Z,3.47
2022-12-23T21:28:59.440Z,3.00
2022-12-23T21:31:27.744Z,3.20
2022-12-23T21:33:54.537Z,3.43
2022-12-23T21:36:22.967Z,3.20
2022-12-23T21:38:50.126Z,3.60
2022-12-23T21:41:28.003Z,3.43
2022-12-23T21:43:56.263Z,2.90
2022-12-23T21:46:24.005Z,2.70
2022-12-23T21:48:51.126Z,3.70
2022-12-23T21:51:22.269Z,3.53
2022-12-23T21:53:50.846Z,3.97
2022-12-23T21:56:18.937Z,3.00
2022-12-23T21:58:45.734Z,3.47
2022-12-23T22:01:14.037Z,3.50
2022-12-23T22:03:40.734Z,3.63
2022-12-23T22:06:10.386Z,3.50
2022-12-23T22:08:38.080Z,3.00
2022-12-23T22:11:08.832Z,3.63
2022-12-23T22:13:35.927Z,3.67
2022-12-23T22:16:02.786Z,3.60
2022-12-23T22:18:29.979Z,4.00
2022-12-23T22:20:56.806Z,3.40
2022-12-23T22:23:23.594Z,3.40
2022-12-23T22:25:53.929Z,3.00
2022-12-23T22:28:20.651Z,3.83
2022-12-23T22:30:47.616Z,3.33
2022-12-23T22:33:14.653Z,3.73
2022-12-23T22:35:41.396Z,2.87
2022-12-23T22:38:09.293Z,3.63
2022-12-23T22:40:35.929Z,3.97
2022-12-23T22:43:02.551Z,5.00
2022-12-23T22:45:29.262Z,3.57
2022-12-23T22:47:56.206Z,4.30
2022-12-23T22:50:22.810Z,3.17
2022-12-23T22:52:49.431Z,3.70
2022-12-23T22:55:16.207Z,3.80
2022-12-23T22:57:42.832Z,4.43
2022-12-23T23:00:12.611Z,5.50
2022-12-23T23:02:39.519Z,4.10
2022-12-23T23:05:12.365Z,4.03
2022-12-23T23:07:39.493Z,3.13
2022-12-23T23:10:06.451Z,3.40
2022-12-23T23:12:33.157Z,3.60
2022-12-23T23:14:59.837Z,3.77
2022-12-23T23:17:27.104Z,4.57
2022-12-23T23:19:53.847Z,3.90
2022-12-23T23:22:21.272Z,4.20
2022-12-23T23:24:48.069Z,3.87
2022-12-23T23:27:14.848Z,3.93
2022-12-23T23:29:41.901Z,4.93
2022-12-23T23:32:09.657Z,4.73
2022-12-23T23:34:37.127Z,3.23
2022-12-23T23:37:04.878Z,3.60
2022-12-23T23:39:31.530Z,3.70
2022-12-23T23:41:58.772Z,4.93
2022-12-23T23:44:25.459Z,3.60
2022-12-23T23:46:52.209Z,4.97
2022-12-23T23:49:18.982Z,5.00
2022-12-23T23:51:45.694Z,4.20
2022-12-23T23:54:12.334Z,4.00
2022-12-23T23:56:39.703Z,3.63
2022-12-23T23:59:06.863Z,3.10
